sensor_id;sensor_type;location;lat;lon;timestamp;temperature;humidity
22996;DHT22;11664;49.774;8.650;2023-02-04T00:00:36;7.60;99.90
22996;DHT22;11664;49.774;8.650;2023-02-04T00:03:15;7.70;99.90
22996;DHT22;11664;49.774;8.650;2023-02-04T00:05:46;7.70;99.90
22996;DHT22;11664;49.774;8.650;2023-02-04T00:08:21;7.80;99.90
22996;DHT22;11664;49.774;8.650;2023-02-04T00:10:50;7.70;99.90
22996;DHT22;11664;49.774;8.650;2023-02-04T00:13:18;7.70;99.90
22996;DHT22;11664;49.774;8.650;2023-02-04T00:15:47;7.70;99.90
22996;DHT22;11664;49.774;8.650;2023-02-04T00:18:18;7.70;99.90
22996;DHT22;11664;49.774;8.650;2023-02-04T00:20:50;7.60;99.90
22996;DHT22;11664;49.774;8.650;2023-02-04T00:23:22;7.60;99.90
22996;DHT22;11664;49.774;8.650;2023-02-04T00:25:47;7.60;99.90
22996;DHT22;11664;49.774;8.650;2023-02-04T00:28:13;7.60;99.90
22996;DHT22;11664;49.774;8.650;2023-02-04T00:30:38;7.60;99.90
22996;DHT22;11664;49.774;8.650;2023-02-04T00:33:07;7.50;99.90
22996;DHT22;11664;49.774;8.650;2023-02-04T00:35:44;7.50;99.90
22996;DHT22;11664;49.774;8.650;2023-02-04T00:38:10;7.40;99.90
22996;DHT22;11664;49.774;8.650;2023-02-04T00:40:41;7.40;99.90
22996;DHT22;11664;49.774;8.650;2023-02-04T00:43:07;7.40;99.90
22996;DHT22;11664;49.774;8.650;2023-02-04T00:45:48;7.40;99.90
22996;DHT22;11664;49.774;8.650;2023-02-04T00:50:45;7.30;99.90
22996;DHT22;11664;49.774;8.650;2023-02-04T00:53:21;7.30;99.90
22996;DHT22;11664;49.774;8.650;2023-02-04T00:56:02;7.40;99.90
22996;DHT22;11664;49.774;8.650;2023-02-04T00:58:27;7.50;99.90
22996;DHT22;11664;49.774;8.650;2023-02-04T01:00:53;7.50;99.90
22996;DHT22;11664;49.774;8.650;2023-02-04T01:03:31;7.70;99.90
22996;DHT22;11664;49.774;8.650;2023-02-04T01:06:03;7.80;99.90
22996;DHT22;11664;49.774;8.650;2023-02-04T01:08:28;7.80;99.90
22996;DHT22;11664;49.774;8.650;2023-02-04T01:10:57;7.80;99.90
22996;DHT22;11664;49.774;8.650;2023-02-04T01:13:38;7.80;99.90
22996;DHT22;11664;49.774;8.650;2023-02-04T01:16:10;7.70;99.90
22996;DHT22;11664;49.774;8.650;2023-02-04T01:18:41;7.70;99.90
22996;DHT22;11664;49.774;8.650;2023-02-04T01:21:13;7.70;99.90
22996;DHT22;11664;49.774;8.650;2023-02-04T01:23:51;7.70;99.90
22996;DHT22;11664;49.774;8.650;2023-02-04T01:26:20;7.80;99.90
22996;DHT22;11664;49.774;8.650;2023-02-04T01:28:52;7.70;99.90
22996;DHT22;11664;49.774;8.650;2023-02-04T01:31:21;7.70;99.90
22996;DHT22;11664;49.774;8.650;2023-02-04T01:33:46;7.70;99.90
22996;DHT22;11664;49.774;8.650;2023-02-04T01:36:12;7.70;99.90
22996;DHT22;11664;49.774;8.650;2023-02-04T01:38:48;7.60;99.90
22996;DHT22;11664;49.774;8.650;2023-02-04T01:41:14;7.60;99.90
22996;DHT22;11664;49.774;8.650;2023-02-04T01:43:50;7.60;99.90
22996;DHT22;11664;49.774;8.650;2023-02-04T01:46:18;7.60;99.90
22996;DHT22;11664;49.774;8.650;2023-02-04T01:48:47;7.60;99.90
22996;DHT22;11664;49.774;8.650;2023-02-04T01:51:25;7.60;99.90
22996;DHT22;11664;49.774;8.650;2023-02-04T01:53:55;7.60;99.90
22996;DHT22;11664;49.774;8.650;2023-02-04T01:56:29;7.60;99.90
22996;DHT22;11664;49.774;8.650;2023-02-04T01:58:56;7.60;99.90
22996;DHT22;11664;49.774;8.650;2023-02-04T02:06:52;7.50;99.90
22996;DHT22;11664;49.774;8.650;2023-02-04T02:09:19;7.50;99.90
22996;DHT22;11664;49.774;8.650;2023-02-04T02:11:45;7.40;99.90
22996;DHT22;11664;49.774;8.650;2023-02-04T02:14:12;7.40;99.90
22996;DHT22;11664;49.774;8.650;2023-02-04T02:16:37;7.40;99.90
22996;DHT22;11664;49.774;8.650;2023-02-04T02:19:09;7.40;99.90
22996;DHT22;11664;49.774;8.650;2023-02-04T02:22:06;7.40;99.90
22996;DHT22;11664;49.774;8.650;2023-02-04T02:24:35;7.30;99.90
22996;DHT22;11664;49.774;8.650;2023-02-04T02:27:08;7.40;99.90
22996;DHT22;11664;49.774;8.650;2023-02-04T02:29:37;7.40;99.90
22996;DHT22;11664;49.774;8.650;2023-02-04T02:35:29;7.40;99.90
22996;DHT22;11664;49.774;8.650;2023-02-04T02:37:58;7.40;99.90
22996;DHT22;11664;49.774;8.650;2023-02-04T02:40:29;7.40;99.90
22996;DHT22;11664;49.774;8.650;2023-02-04T02:42:55;7.30;99.90
22996;DHT22;11664;49.774;8.650;2023-02-04T02:45:26;7.30;99.90
22996;DHT22;11664;49.774;8.650;2023-02-04T02:47:53;7.30;99.90
22996;DHT22;11664;49.774;8.650;2023-02-04T02:52:54;7.20;99.90
22996;DHT22;11664;49.774;8.650;2023-02-04T02:55:23;7.10;99.90
22996;DHT22;11664;49.774;8.650;2023-02-04T02:57:55;7.10;99.90
22996;DHT22;11664;49.774;8.650;2023-02-04T03:03:34;7.00;99.90
22996;DHT22;11664;49.774;8.650;2023-02-04T03:06:24;6.90;99.90
22996;DHT22;11664;49.774;8.650;2023-02-04T03:08:52;6.90;99.90
22996;DHT22;11664;49.774;8.650;2023-02-04T03:11:22;6.80;99.90
22996;DHT22;11664;49.774;8.650;2023-02-04T03:16:20;6.80;99.90
22996;DHT22;11664;49.774;8.650;2023-02-04T03:18:47;6.70;99.90
22996;DHT22;11664;49.774;8.650;2023-02-04T03:21:28;6.70;99.90
22996;DHT22;11664;49.774;8.650;2023-02-04T03:23:54;6.70;99.90
22996;DHT22;11664;49.774;8.650;2023-02-04T03:26:27;6.70;99.90
22996;DHT22;11664;49.774;8.650;2023-02-04T03:28:59;6.70;99.90
22996;DHT22;11664;49.774;8.650;2023-02-04T03:31:24;6.70;99.90
22996;DHT22;11664;49.774;8.650;2023-02-04T03:33:53;6.60;99.90
22996;DHT22;11664;49.774;8.650;2023-02-04T03:36:18;6.50;99.90
22996;DHT22;11664;49.774;8.650;2023-02-04T03:38:44;6.50;99.90
22996;DHT22;11664;49.774;8.650;2023-02-04T03:41:12;6.50;99.90
22996;DHT22;11664;49.774;8.650;2023-02-04T03:43:38;6.50;99.90
22996;DHT22;11664;49.774;8.650;2023-02-04T03:46:04;6.70;99.90
22996;DHT22;11664;49.774;8.650;2023-02-04T03:48:32;6.80;99.90
22996;DHT22;11664;49.774;8.650;2023-02-04T03:51:04;6.90;99.90
22996;DHT22;11664;49.774;8.650;2023-02-04T03:53:33;6.90;99.90
22996;DHT22;11664;49.774;8.650;2023-02-04T03:56:11;6.80;99.90
22996;DHT22;11664;49.774;8.650;2023-02-04T03:58:40;6.80;99.90
22996;DHT22;11664;49.774;8.650;2023-02-04T04:01:11;6.70;99.90
22996;DHT22;11664;49.774;8.650;2023-02-04T04:03:45;6.70;99.90
22996;DHT22;11664;49.774;8.650;2023-02-04T04:06:11;6.70;99.90
22996;DHT22;11664;49.774;8.650;2023-02-04T04:08:37;6.70;99.90
22996;DHT22;11664;49.774;8.650;2023-02-04T04:11:03;6.80;99.90
22996;DHT22;11664;49.774;8.650;2023-02-04T04:13:29;6.80;99.90
22996;DHT22;11664;49.774;8.650;2023-02-04T04:15:57;6.80;99.90
22996;DHT22;11664;49.774;8.650;2023-02-04T04:18:30;6.80;99.90
22996;DHT22;11664;49.774;8.650;2023-02-04T04:21:02;6.70;99.90
22996;DHT22;11664;49.774;8.650;2023-02-04T04:23:34;6.70;99.90
22996;DHT22;11664;49.774;8.650;2023-02-04T04:26:06;6.70;99.90
22996;DHT22;11664;49.774;8.650;2023-02-04T04:28:47;6.60;99.90
22996;DHT22;11664;49.774;8.650;2023-02-04T04:31:12;6.60;99.90
22996;DHT22;11664;49.774;8.650;2023-02-04T04:33:44;6.60;99.90
22996;DHT22;11664;49.774;8.650;2023-02-04T04:36:10;6.60;99.90
22996;DHT22;11664;49.774;8.650;2023-02-04T04:38:39;6.50;99.90
22996;DHT22;11664;49.774;8.650;2023-02-04T04:41:04;6.50;99.90
22996;DHT22;11664;49.774;8.650;2023-02-04T04:43:33;6.50;99.90
22996;DHT22;11664;49.774;8.650;2023-02-04T04:46:08;6.50;99.90
22996;DHT22;11664;49.774;8.650;2023-02-04T04:48:33;6.50;99.90
22996;DHT22;11664;49.774;8.650;2023-02-04T04:51:05;6.60;99.90
22996;DHT22;11664;49.774;8.650;2023-02-04T04:53:30;6.60;99.90
22996;DHT22;11664;49.774;8.650;2023-02-04T04:56:02;6.60;99.90
22996;DHT22;11664;49.774;8.650;2023-02-04T04:58:35;6.60;99.90
22996;DHT22;11664;49.774;8.650;2023-02-04T05:01:00;6.50;99.90
22996;DHT22;11664;49.774;8.650;2023-02-04T05:03:41;6.50;99.90
22996;DHT22;11664;49.774;8.650;2023-02-04T05:06:26;6.50;99.90
22996;DHT22;11664;49.774;8.650;2023-02-04T05:08:54;6.50;99.90
22996;DHT22;11664;49.774;8.650;2023-02-04T05:11:26;6.40;99.90
22996;DHT22;11664;49.774;8.650;2023-02-04T05:13:57;6.30;99.90
22996;DHT22;11664;49.774;8.650;2023-02-04T05:16:22;6.30;99.90
22996;DHT22;11664;49.774;8.650;2023-02-04T05:18:51;6.20;99.90
22996;DHT22;11664;49.774;8.650;2023-02-04T05:21:17;6.20;99.90
22996;DHT22;11664;49.774;8.650;2023-02-04T05:23:48;6.10;99.90
22996;DHT22;11664;49.774;8.650;2023-02-04T05:26:17;6.10;99.90
22996;DHT22;11664;49.774;8.650;2023-02-04T05:28:48;6.00;99.90
22996;DHT22;11664;49.774;8.650;2023-02-04T05:31:18;6.00;99.90
22996;DHT22;11664;49.774;8.650;2023-02-04T05:33:47;6.00;99.90
22996;DHT22;11664;49.774;8.650;2023-02-04T05:36:16;6.00;99.90
22996;DHT22;11664;49.774;8.650;2023-02-04T05:38:50;5.90;99.90
22996;DHT22;11664;49.774;8.650;2023-02-04T05:41:16;5.90;99.90
22996;DHT22;11664;49.774;8.650;2023-02-04T05:43:42;5.90;99.90
22996;DHT22;11664;49.774;8.650;2023-02-04T05:46:13;5.90;99.90
22996;DHT22;11664;49.774;8.650;2023-02-04T05:48:38;5.90;99.90
22996;DHT22;11664;49.774;8.650;2023-02-04T05:51:15;5.80;99.90
22996;DHT22;11664;49.774;8.650;2023-02-04T05:53:47;5.80;99.90
22996;DHT22;11664;49.774;8.650;2023-02-04T05:56:18;5.70;99.90
22996;DHT22;11664;49.774;8.650;2023-02-04T05:58:44;5.70;99.90
22996;DHT22;11664;49.774;8.650;2023-02-04T06:01:13;5.70;99.90
22996;DHT22;11664;49.774;8.650;2023-02-04T06:03:39;5.60;99.90
22996;DHT22;11664;49.774;8.650;2023-02-04T06:06:10;5.60;99.90
22996;DHT22;11664;49.774;8.650;2023-02-04T06:08:39;5.50;99.90
22996;DHT22;11664;49.774;8.650;2023-02-04T06:11:04;5.50;99.90
22996;DHT22;11664;49.774;8.650;2023-02-04T06:13:33;5.50;99.90
22996;DHT22;11664;49.774;8.650;2023-02-04T06:16:02;5.50;99.90
22996;DHT22;11664;49.774;8.650;2023-02-04T06:18:30;5.40;99.90
22996;DHT22;11664;49.774;8.650;2023-02-04T06:21:11;5.40;99.90
22996;DHT22;11664;49.774;8.650;2023-02-04T06:23:36;5.40;99.90
22996;DHT22;11664;49.774;8.650;2023-02-04T06:26:05;5.40;99.90
22996;DHT22;11664;49.774;8.650;2023-02-04T06:28:36;5.40;99.90
22996;DHT22;11664;49.774;8.650;2023-02-04T06:31:11;5.40;99.90
22996;DHT22;11664;49.774;8.650;2023-02-04T06:33:43;5.40;99.90
22996;DHT22;11664;49.774;8.650;2023-02-04T06:36:11;5.40;99.90
22996;DHT22;11664;49.774;8.650;2023-02-04T06:38:40;5.40;99.90
22996;DHT22;11664;49.774;8.650;2023-02-04T06:41:08;5.40;99.90
22996;DHT22;11664;49.774;8.650;2023-02-04T06:43:34;5.40;99.90
22996;DHT22;11664;49.774;8.650;2023-02-04T06:46:02;5.50;99.90
22996;DHT22;11664;49.774;8.650;2023-02-04T06:48:28;5.50;99.90
22996;DHT22;11664;49.774;8.650;2023-02-04T06:50:59;5.70;99.90
22996;DHT22;11664;49.774;8.650;2023-02-04T06:53:25;6.30;99.90
22996;DHT22;11664;49.774;8.650;2023-02-04T06:55:50;6.20;99.90
22996;DHT22;11664;49.774;8.650;2023-02-04T06:58:23;6.10;99.90
22996;DHT22;11664;49.774;8.650;2023-02-04T07:00:55;6.10;99.90
22996;DHT22;11664;49.774;8.650;2023-02-04T07:03:20;6.10;99.90
22996;DHT22;11664;49.774;8.650;2023-02-04T07:05:52;6.10;99.90
22996;DHT22;11664;49.774;8.650;2023-02-04T07:08:27;6.10;99.90
22996;DHT22;11664;49.774;8.650;2023-02-04T07:10:56;6.00;99.90
22996;DHT22;11664;49.774;8.650;2023-02-04T07:13:27;6.00;99.90
22996;DHT22;11664;49.774;8.650;2023-02-04T07:15:53;6.00;99.90
22996;DHT22;11664;49.774;8.650;2023-02-04T07:18:21;6.00;99.90
22996;DHT22;11664;49.774;8.650;2023-02-04T07:20:53;6.00;99.90
22996;DHT22;11664;49.774;8.650;2023-02-04T07:23:22;6.00;99.90
22996;DHT22;11664;49.774;8.650;2023-02-04T07:25:49;6.00;99.90
22996;DHT22;11664;49.774;8.650;2023-02-04T07:28:21;5.90;99.90
22996;DHT22;11664;49.774;8.650;2023-02-04T07:30:50;5.90;99.90
22996;DHT22;11664;49.774;8.650;2023-02-04T07:33:15;5.90;99.90
22996;DHT22;11664;49.774;8.650;2023-02-04T07:35:47;5.90;99.90
22996;DHT22;11664;49.774;8.650;2023-02-04T07:38:16;5.90;99.90
22996;DHT22;11664;49.774;8.650;2023-02-04T07:40:51;6.00;99.90
22996;DHT22;11664;49.774;8.650;2023-02-04T07:43:17;5.90;99.90
22996;DHT22;11664;49.774;8.650;2023-02-04T07:45:52;6.00;99.90
22996;DHT22;11664;49.774;8.650;2023-02-04T07:48:23;6.00;99.90
22996;DHT22;11664;49.774;8.650;2023-02-04T07:50:49;6.10;99.90
22996;DHT22;11664;49.774;8.650;2023-02-04T07:53:24;6.10;99.90
22996;DHT22;11664;49.774;8.650;2023-02-04T07:55:52;6.20;99.90
22996;DHT22;11664;49.774;8.650;2023-02-04T07:58:21;6.20;99.90
22996;DHT22;11664;49.774;8.650;2023-02-04T08:00:47;6.30;99.90
22996;DHT22;11664;49.774;8.650;2023-02-04T08:03:16;6.40;99.90
22996;DHT22;11664;49.774;8.650;2023-02-04T08:05:47;6.40;99.90
22996;DHT22;11664;49.774;8.650;2023-02-04T08:08:13;6.60;99.90
22996;DHT22;11664;49.774;8.650;2023-02-04T08:10:42;6.60;99.90
22996;DHT22;11664;49.774;8.650;2023-02-04T08:13:14;6.70;99.90
22996;DHT22;11664;49.774;8.650;2023-02-04T08:15:42;6.90;99.90
22996;DHT22;11664;49.774;8.650;2023-02-04T08:18:13;6.90;99.90
22996;DHT22;11664;49.774;8.650;2023-02-04T08:20:39;7.10;99.90
22996;DHT22;11664;49.774;8.650;2023-02-04T08:23:04;7.20;99.90
22996;DHT22;11664;49.774;8.650;2023-02-04T08:25:48;7.20;99.90
22996;DHT22;11664;49.774;8.650;2023-02-04T08:28:17;7.30;99.90
22996;DHT22;11664;49.774;8.650;2023-02-04T08:30:51;7.40;99.90
22996;DHT22;11664;49.774;8.650;2023-02-04T08:33:18;7.50;99.90
22996;DHT22;11664;49.774;8.650;2023-02-04T08:35:45;7.50;99.90
22996;DHT22;11664;49.774;8.650;2023-02-04T08:38:16;7.60;99.90
22996;DHT22;11664;49.774;8.650;2023-02-04T08:40:48;7.70;99.90
22996;DHT22;11664;49.774;8.650;2023-02-04T08:43:13;7.90;99.90
22996;DHT22;11664;49.774;8.650;2023-02-04T08:45:39;7.80;99.90
22996;DHT22;11664;49.774;8.650;2023-02-04T08:48:05;7.90;99.90
22996;DHT22;11664;49.774;8.650;2023-02-04T08:53:04;7.90;99.90
22996;DHT22;11664;49.774;8.650;2023-02-04T08:55:29;8.00;99.90
22996;DHT22;11664;49.774;8.650;2023-02-04T08:57:55;8.00;99.90
22996;DHT22;11664;49.774;8.650;2023-02-04T09:00:20;7.90;99.90
22996;DHT22;11664;49.774;8.650;2023-02-04T09:02:46;7.90;99.90
22996;DHT22;11664;49.774;8.650;2023-02-04T09:05:15;8.00;99.90
22996;DHT22;11664;49.774;8.650;2023-02-04T09:07:46;8.00;99.90
22996;DHT22;11664;49.774;8.650;2023-02-04T09:10:15;8.00;99.90
22996;DHT22;11664;49.774;8.650;2023-02-04T09:12:47;8.10;99.90
22996;DHT22;11664;49.774;8.650;2023-02-04T09:15:15;8.10;99.90
22996;DHT22;11664;49.774;8.650;2023-02-04T09:17:47;8.00;99.90
22996;DHT22;11664;49.774;8.650;2023-02-04T09:20:19;8.10;99.90
22996;DHT22;11664;49.774;8.650;2023-02-04T09:22:48;7.90;99.90
22996;DHT22;11664;49.774;8.650;2023-02-04T09:25:17;7.90;99.90
22996;DHT22;11664;49.774;8.650;2023-02-04T09:27:49;7.90;99.90
22996;DHT22;11664;49.774;8.650;2023-02-04T09:30:20;7.80;99.90
22996;DHT22;11664;49.774;8.650;2023-02-04T09:32:48;7.80;99.90
22996;DHT22;11664;49.774;8.650;2023-02-04T09:35:20;7.80;99.90
22996;DHT22;11664;49.774;8.650;2023-02-04T09:37:48;7.90;99.90
22996;DHT22;11664;49.774;8.650;2023-02-04T09:40:28;8.00;99.90
22996;DHT22;11664;49.774;8.650;2023-02-04T09:42:54;8.20;99.90
22996;DHT22;11664;49.774;8.650;2023-02-04T09:45:34;8.30;99.90
22996;DHT22;11664;49.774;8.650;2023-02-04T09:48:02;8.40;99.90
22996;DHT22;11664;49.774;8.650;2023-02-04T09:50:29;8.50;99.90
22996;DHT22;11664;49.774;8.650;2023-02-04T09:55:42;8.80;99.90
22996;DHT22;11664;49.774;8.650;2023-02-04T09:58:22;8.90;99.90
22996;DHT22;11664;49.774;8.650;2023-02-04T10:01:17;9.10;99.90
22996;DHT22;11664;49.774;8.650;2023-02-04T10:03:47;9.40;99.90
22996;DHT22;11664;49.774;8.650;2023-02-04T10:06:18;9.50;99.90
22996;DHT22;11664;49.774;8.650;2023-02-04T10:08:51;9.40;99.90
22996;DHT22;11664;49.774;8.650;2023-02-04T10:11:19;9.30;99.90
22996;DHT22;11664;49.774;8.650;2023-02-04T10:13:50;9.10;99.90
22996;DHT22;11664;49.774;8.650;2023-02-04T10:16:27;8.90;99.90
22996;DHT22;11664;49.774;8.650;2023-02-04T10:19:02;8.80;99.90
22996;DHT22;11664;49.774;8.650;2023-02-04T10:21:30;8.70;99.90
22996;DHT22;11664;49.774;8.650;2023-02-04T10:24:02;8.70;99.90
22996;DHT22;11664;49.774;8.650;2023-02-04T10:26:30;8.60;99.90
22996;DHT22;11664;49.774;8.650;2023-02-04T10:29:05;8.70;99.90
22996;DHT22;11664;49.774;8.650;2023-02-04T10:31:33;8.60;99.90
22996;DHT22;11664;49.774;8.650;2023-02-04T10:34:18;8.70;99.90
22996;DHT22;11664;49.774;8.650;2023-02-04T10:36:47;8.80;99.90
22996;DHT22;11664;49.774;8.650;2023-02-04T10:39:18;8.80;99.90
22996;DHT22;11664;49.774;8.650;2023-02-04T10:42:29;8.80;99.90
22996;DHT22;11664;49.774;8.650;2023-02-04T10:47:26;8.70;99.90
22996;DHT22;11664;49.774;8.650;2023-02-04T10:50:18;8.90;99.90
22996;DHT22;11664;49.774;8.650;2023-02-04T10:52:47;9.20;99.90
22996;DHT22;11664;49.774;8.650;2023-02-04T10:55:16;9.20;99.90
22996;DHT22;11664;49.774;8.650;2023-02-04T10:57:43;9.00;99.90
22996;DHT22;11664;49.774;8.650;2023-02-04T11:00:28;8.80;99.90
22996;DHT22;11664;49.774;8.650;2023-02-04T11:03:10;8.80;99.90
22996;DHT22;11664;49.774;8.650;2023-02-04T11:05:36;8.90;99.90
22996;DHT22;11664;49.774;8.650;2023-02-04T11:08:32;9.00;99.90
22996;DHT22;11664;49.774;8.650;2023-02-04T11:11:08;9.00;99.90
22996;DHT22;11664;49.774;8.650;2023-02-04T11:16:24;9.20;99.90
22996;DHT22;11664;49.774;8.650;2023-02-04T11:19:10;9.30;99.90
22996;DHT22;11664;49.774;8.650;2023-02-04T11:29:35;9.60;99.90
22996;DHT22;11664;49.774;8.650;2023-02-04T11:32:26;9.50;99.90
22996;DHT22;11664;49.774;8.650;2023-02-04T11:35:06;9.70;99.90
22996;DHT22;11664;49.774;8.650;2023-02-04T11:40:34;10.00;99.90
22996;DHT22;11664;49.774;8.650;2023-02-04T11:43:16;10.00;99.90
22996;DHT22;11664;49.774;8.650;2023-02-04T11:48:17;10.00;99.90
22996;DHT22;11664;49.774;8.650;2023-02-04T11:51:01;9.80;99.90
22996;DHT22;11664;49.774;8.650;2023-02-04T11:53:31;9.80;99.90
22996;DHT22;11664;49.774;8.650;2023-02-04T11:55:57;9.60;99.90
22996;DHT22;11664;49.774;8.650;2023-02-04T11:58:28;9.40;99.90
22996;DHT22;11664;49.774;8.650;2023-02-04T12:00:55;9.60;99.90
22996;DHT22;11664;49.774;8.650;2023-02-04T12:03:22;9.80;99.90
22996;DHT22;11664;49.774;8.650;2023-02-04T12:05:48;10.00;99.90
22996;DHT22;11664;49.774;8.650;2023-02-04T12:08:25;10.00;99.90
22996;DHT22;11664;49.774;8.650;2023-02-04T12:13:51;9.90;99.90
22996;DHT22;11664;49.774;8.650;2023-02-04T12:16:21;9.70;99.90
22996;DHT22;11664;49.774;8.650;2023-02-04T12:21:16;9.90;99.90
22996;DHT22;11664;49.774;8.650;2023-02-04T12:23:52;9.80;99.90
22996;DHT22;11664;49.774;8.650;2023-02-04T12:26:17;9.80;99.90
22996;DHT22;11664;49.774;8.650;2023-02-04T12:28:46;9.90;99.90
22996;DHT22;11664;49.774;8.650;2023-02-04T12:31:14;9.80;99.90
22996;DHT22;11664;49.774;8.650;2023-02-04T12:33:52;9.70;99.90
22996;DHT22;11664;49.774;8.650;2023-02-04T12:36:21;9.50;99.90
22996;DHT22;11664;49.774;8.650;2023-02-04T12:39:06;9.40;99.90
22996;DHT22;11664;49.774;8.650;2023-02-04T12:41:35;9.40;99.90
22996;DHT22;11664;49.774;8.650;2023-02-04T12:44:00;9.40;99.90
22996;DHT22;11664;49.774;8.650;2023-02-04T12:48:56;9.60;99.90
22996;DHT22;11664;49.774;8.650;2023-02-04T12:51:22;9.80;99.90
22996;DHT22;11664;49.774;8.650;2023-02-04T12:53:48;9.90;99.90
22996;DHT22;11664;49.774;8.650;2023-02-04T12:56:14;9.90;99.90
22996;DHT22;11664;49.774;8.650;2023-02-04T12:58:43;10.00;99.90
22996;DHT22;11664;49.774;8.650;2023-02-04T13:01:09;10.00;99.90
22996;DHT22;11664;49.774;8.650;2023-02-04T13:03:34;9.80;99.90
22996;DHT22;11664;49.774;8.650;2023-02-04T13:06:03;9.60;99.90
22996;DHT22;11664;49.774;8.650;2023-02-04T13:08:32;9.80;99.90
22996;DHT22;11664;49.774;8.650;2023-02-04T13:11:01;9.90;99.90
22996;DHT22;11664;49.774;8.650;2023-02-04T13:13:29;10.00;99.90
22996;DHT22;11664;49.774;8.650;2023-02-04T13:15:55;10.10;99.90
22996;DHT22;11664;49.774;8.650;2023-02-04T13:18:20;10.00;99.90
22996;DHT22;11664;49.774;8.650;2023-02-04T13:20:49;9.90;99.90
22996;DHT22;11664;49.774;8.650;2023-02-04T13:23:17;9.90;99.90
22996;DHT22;11664;49.774;8.650;2023-02-04T13:25:43;9.90;99.90
22996;DHT22;11664;49.774;8.650;2023-02-04T13:28:09;10.10;99.90
22996;DHT22;11664;49.774;8.650;2023-02-04T13:30:41;10.10;99.90
22996;DHT22;11664;49.774;8.650;2023-02-04T13:33:12;10.10;99.90
22996;DHT22;11664;49.774;8.650;2023-02-04T13:38:16;10.70;99.90
22996;DHT22;11664;49.774;8.650;2023-02-04T13:40:42;10.70;99.90
22996;DHT22;11664;49.774;8.650;2023-02-04T13:43:16;10.70;99.90
22996;DHT22;11664;49.774;8.650;2023-02-04T13:45:45;10.40;99.90
22996;DHT22;11664;49.774;8.650;2023-02-04T13:48:16;10.20;99.90
22996;DHT22;11664;49.774;8.650;2023-02-04T13:50:44;10.20;99.90
22996;DHT22;11664;49.774;8.650;2023-02-04T13:53:10;10.30;99.90
22996;DHT22;11664;49.774;8.650;2023-02-04T13:55:38;10.10;99.90
22996;DHT22;11664;49.774;8.650;2023-02-04T13:58:23;10.00;99.90
22996;DHT22;11664;49.774;8.650;2023-02-04T14:16:01;11.60;99.90
22996;DHT22;11664;49.774;8.650;2023-02-04T14:31:10;10.50;99.90
22996;DHT22;11664;49.774;8.650;2023-02-04T14:33:41;10.40;99.90
22996;DHT22;11664;49.774;8.650;2023-02-04T14:36:13;10.10;99.90
22996;DHT22;11664;49.774;8.650;2023-02-04T15:09:37;9.80;99.90
22996;DHT22;11664;49.774;8.650;2023-02-04T15:12:12;9.70;99.90
22996;DHT22;11664;49.774;8.650;2023-02-04T15:14:44;9.60;99.90
22996;DHT22;11664;49.774;8.650;2023-02-04T15:17:09;9.40;99.90
22996;DHT22;11664;49.774;8.650;2023-02-04T15:22:07;9.20;99.90
22996;DHT22;11664;49.774;8.650;2023-02-04T15:24:45;9.20;99.90
22996;DHT22;11664;49.774;8.650;2023-02-04T15:27:10;9.10;99.90
22996;DHT22;11664;49.774;8.650;2023-02-04T15:29:45;9.00;99.90
22996;DHT22;11664;49.774;8.650;2023-02-04T15:32:10;9.00;99.90
22996;DHT22;11664;49.774;8.650;2023-02-04T15:34:36;8.90;99.90
22996;DHT22;11664;49.774;8.650;2023-02-04T15:37:02;8.80;99.90
22996;DHT22;11664;49.774;8.650;2023-02-04T15:39:27;8.80;99.90
22996;DHT22;11664;49.774;8.650;2023-02-04T15:41:56;8.60;99.90
22996;DHT22;11664;49.774;8.650;2023-02-04T15:44:21;8.60;99.90
22996;DHT22;11664;49.774;8.650;2023-02-04T15:46:51;8.50;99.90
22996;DHT22;11664;49.774;8.650;2023-02-04T15:49:21;8.40;99.90
22996;DHT22;11664;49.774;8.650;2023-02-04T15:55:17;8.20;99.90
22996;DHT22;11664;49.774;8.650;2023-02-04T15:57:43;8.10;99.90
22996;DHT22;11664;49.774;8.650;2023-02-04T16:00:15;7.90;99.90
22996;DHT22;11664;49.774;8.650;2023-02-04T16:02:40;7.80;99.90
22996;DHT22;11664;49.774;8.650;2023-02-04T16:05:15;7.70;99.90
22996;DHT22;11664;49.774;8.650;2023-02-04T16:07:44;7.60;99.90
22996;DHT22;11664;49.774;8.650;2023-02-04T16:10:10;7.50;99.90
22996;DHT22;11664;49.774;8.650;2023-02-04T16:13:03;7.40;99.90
22996;DHT22;11664;49.774;8.650;2023-02-04T16:15:32;7.20;99.90
22996;DHT22;11664;49.774;8.650;2023-02-04T16:18:04;7.10;99.90
22996;DHT22;11664;49.774;8.650;2023-02-04T16:20:29;7.00;99.90
22996;DHT22;11664;49.774;8.650;2023-02-04T16:22:55;6.90;99.90
22996;DHT22;11664;49.774;8.650;2023-02-04T16:25:20;6.80;99.90
22996;DHT22;11664;49.774;8.650;2023-02-04T16:27:47;6.60;99.90
22996;DHT22;11664;49.774;8.650;2023-02-04T16:30:16;6.50;99.90
22996;DHT22;11664;49.774;8.650;2023-02-04T16:32:47;6.40;99.90
22996;DHT22;11664;49.774;8.650;2023-02-04T16:35:16;6.20;99.90
22996;DHT22;11664;49.774;8.650;2023-02-04T16:37:48;6.20;99.90
22996;DHT22;11664;49.774;8.650;2023-02-04T16:40:25;6.10;99.90
22996;DHT22;11664;49.774;8.650;2023-02-04T16:42:51;6.10;99.90
22996;DHT22;11664;49.774;8.650;2023-02-04T16:45:17;6.10;99.90
22996;DHT22;11664;49.774;8.650;2023-02-04T16:47:45;6.10;99.90
22996;DHT22;11664;49.774;8.650;2023-02-04T16:50:11;6.20;99.90
22996;DHT22;11664;49.774;8.650;2023-02-04T16:52:36;6.30;99.90
22996;DHT22;11664;49.774;8.650;2023-02-04T16:55:08;6.30;99.90
22996;DHT22;11664;49.774;8.650;2023-02-04T16:57:42;6.40;99.90
22996;DHT22;11664;49.774;8.650;2023-02-04T17:00:29;6.40;99.90
22996;DHT22;11664;49.774;8.650;2023-02-04T17:03:01;6.40;99.90
22996;DHT22;11664;49.774;8.650;2023-02-04T17:05:27;6.40;99.90
22996;DHT22;11664;49.774;8.650;2023-02-04T17:07:55;6.50;99.90
22996;DHT22;11664;49.774;8.650;2023-02-04T17:10:31;6.50;99.90
22996;DHT22;11664;49.774;8.650;2023-02-04T17:13:19;6.50;99.90
22996;DHT22;11664;49.774;8.650;2023-02-04T17:15:56;6.50;99.90
22996;DHT22;11664;49.774;8.650;2023-02-04T17:18:27;6.60;99.90
22996;DHT22;11664;49.774;8.650;2023-02-04T17:20:59;6.60;99.90
22996;DHT22;11664;49.774;8.650;2023-02-04T17:23:25;6.60;99.90
22996;DHT22;11664;49.774;8.650;2023-02-04T17:25:51;6.70;99.90
22996;DHT22;11664;49.774;8.650;2023-02-04T17:28:25;6.60;99.90
22996;DHT22;11664;49.774;8.650;2023-02-04T17:30:51;6.70;99.90
22996;DHT22;11664;49.774;8.650;2023-02-04T17:33:17;6.70;99.90
22996;DHT22;11664;49.774;8.650;2023-02-04T17:35:51;6.60;99.90
22996;DHT22;11664;49.774;8.650;2023-02-04T17:38:23;6.50;99.90
22996;DHT22;11664;49.774;8.650;2023-02-04T17:40:48;6.40;99.90
22996;DHT22;11664;49.774;8.650;2023-02-04T17:43:15;6.40;99.90
22996;DHT22;11664;49.774;8.650;2023-02-04T17:45:44;6.20;99.90
22996;DHT22;11664;49.774;8.650;2023-02-04T17:48:12;6.20;99.90
22996;DHT22;11664;49.774;8.650;2023-02-04T17:50:38;6.10;99.90
22996;DHT22;11664;49.774;8.650;2023-02-04T17:53:16;6.20;99.90
22996;DHT22;11664;49.774;8.650;2023-02-04T17:55:51;6.20;99.90
22996;DHT22;11664;49.774;8.650;2023-02-04T17:58:24;6.20;99.90
22996;DHT22;11664;49.774;8.650;2023-02-04T18:00:53;6.30;99.90
22996;DHT22;11664;49.774;8.650;2023-02-04T18:03:24;6.20;99.90